DENIK EDSB-EDJA
Flight info
| Callsign | DENIK |
|---|---|
| Flight time | N/A |
| Altitude | |
| Route | |
| Aircraft | C172 |
Departure
| Time | 2026-05-07 17:00 |
|---|---|
| Airport | Karlsruhe Baden-Baden Airport (EDSB) |
Arrival
| Time | N/A |
|---|---|
| Airport | Memmingen Allgau Airport (EDJA) |
| Time | Latitude | Longitude | Altitude | Speed | Heading |
|---|---|---|---|---|---|
| 2026-05-07 16:55 | 48.78597 | 8.09285 | 410 ft | 0 kts | 121° |
| 2026-05-07 16:56 | 48.78596 | 8.09288 | 410 ft | 2 kts | 129° |
| 2026-05-07 16:57 | 48.78612 | 8.09265 | 410 ft | 11 kts | 8° |
| 2026-05-07 16:57 | 48.78696 | 8.09297 | 410 ft | 12 kts | 334° |
| 2026-05-07 16:57 | 48.78748 | 8.09205 | 410 ft | 6 kts | 301° |
| 2026-05-07 16:57 | 48.78819 | 8.09174 | 411 ft | 11 kts | 28° |
| 2026-05-07 16:58 | 48.78896 | 8.09240 | 411 ft | 21 kts | 27° |
| 2026-05-07 16:58 | 48.79003 | 8.09267 | 411 ft | 15 kts | 319° |
| 2026-05-07 16:58 | 48.79055 | 8.09161 | 411 ft | 11 kts | 296° |
| 2026-05-07 16:58 | 48.79028 | 8.09077 | 411 ft | 13 kts | 214° |
| 2026-05-07 16:59 | 48.78778 | 8.08837 | 413 ft | 70 kts | 212° |
| 2026-05-07 16:59 | 48.78249 | 8.08352 | 486 ft | 97 kts | 219° |
| 2026-05-07 16:59 | 48.77731 | 8.07850 | 884 ft | 81 kts | 217° |
| 2026-05-07 16:59 | 48.77088 | 8.07837 | 938 ft | 107 kts | 165° |
| 2026-05-07 17:00 | 48.76310 | 8.08061 | 987 ft | 119 kts | 172° |
| 2026-05-07 17:00 | 48.75484 | 8.08264 | 1147 ft | 119 kts | 173° |
| 2026-05-07 17:00 | 48.74671 | 8.08451 | 1330 ft | 120 kts | 170° |
| 2026-05-07 17:00 | 48.73870 | 8.08693 | 1426 ft | 125 kts | 167° |
| 2026-05-07 17:01 | 48.73018 | 8.08903 | 1453 ft | 121 kts | 169° |
| 2026-05-07 17:01 | 48.72207 | 8.09092 | 1533 ft | 116 kts | 172° |
| 2026-05-07 17:01 | 48.71389 | 8.09255 | 1526 ft | 118 kts | 171° |
| 2026-05-07 17:01 | 48.70592 | 8.09508 | 1582 ft | 117 kts | 168° |
| 2026-05-07 17:02 | 48.69775 | 8.09761 | 1524 ft | 125 kts | 168° |
| 2026-05-07 17:02 | 48.68915 | 8.09977 | 1522 ft | 123 kts | 172° |